Frostproof, Florida
Current Conditions -  °F | °C
As of 7:15 AM on Wednesday 28 Jan 2015 (Local Time) from KBOW Reporting Station
Clear Clear  
Wind Chill: 45°   Ceiling: Unl
Heat Index: 45°   Visibility: 10mi
Dew Point: 37°   Wind: 3mph
Humidity: 76%   Direction: 340°NNW
Pressure: 30.18"   Gusts: NA
Location:  27.75°N, 81.53°W
Report Text: KBOW 281215Z AUTO 34003KT 10SM CLR 07/03 A3018 RMK AO2
Loading
Personal Weather Stations






























Interactive Weather Map New forecast layout! Learn more

10-Day Weather Forecast

Advertisements
Track Severe Weather on mobile